createdAt,value
2023-05-14T00:01:36.878Z,99460.13
2023-05-14T00:04:06.464Z,99451.50
2023-05-14T00:06:35.530Z,99447.13
2023-05-14T00:09:04.969Z,99465.06
2023-05-14T00:11:34.160Z,99472.63
2023-05-14T00:14:02.896Z,99392.00
2023-05-14T00:16:32.245Z,99471.31
2023-05-14T00:19:01.433Z,99476.50
2023-05-14T00:21:30.432Z,99447.34
2023-05-14T00:23:59.955Z,99474.59
2023-05-14T00:26:29.104Z,99453.88
2023-05-14T00:28:57.815Z,99482.88
2023-05-14T00:31:26.480Z,99469.84
2023-05-14T00:33:55.434Z,99406.88
2023-05-14T00:36:24.782Z,99483.56
2023-05-14T00:38:53.637Z,99480.75
2023-05-14T00:41:22.492Z,99485.88
2023-05-14T00:43:51.200Z,99486.78
2023-05-14T00:46:20.356Z,99467.16
2023-05-14T00:48:49.957Z,99469.63
2023-05-14T00:51:20.040Z,99466.22
2023-05-14T00:53:49.660Z,99463.03
2023-05-14T00:56:19.231Z,99492.94
2023-05-14T00:58:48.073Z,99470.41
2023-05-14T01:01:17.333Z,99467.13
2023-05-14T01:03:46.643Z,99461.00
2023-05-14T01:06:21.722Z,99466.13
2023-05-14T01:09:11.613Z,99486.91
2023-05-14T01:12:02.271Z,99485.03
2023-05-14T01:14:42.357Z,99493.91
2023-05-14T01:17:14.119Z,99419.13
2023-05-14T01:19:48.087Z,99491.84
2023-05-14T01:22:17.158Z,99460.22
2023-05-14T01:24:45.979Z,99415.31
2023-05-14T01:27:32.670Z,99498.25
2023-05-14T01:30:13.976Z,99500.19
2023-05-14T01:32:45.833Z,99476.41
2023-05-14T01:35:15.431Z,99489.50
2023-05-14T01:37:46.908Z,99474.81
2023-05-14T01:40:16.465Z,99477.56
2023-05-14T01:42:48.907Z,99503.25
2023-05-14T01:45:17.713Z,99486.22
2023-05-14T01:47:46.823Z,99469.94
2023-05-14T01:50:15.893Z,99506.69
2023-05-14T01:52:44.966Z,99477.56
2023-05-14T01:55:13.624Z,99421.03
2023-05-14T01:57:42.754Z,99467.09
2023-05-14T02:00:12.189Z,99446.63
2023-05-14T02:02:43.715Z,99482.31
2023-05-14T02:05:14.865Z,99478.78
2023-05-14T02:07:43.618Z,99481.63
2023-05-14T02:10:12.465Z,99487.34
2023-05-14T02:12:41.296Z,99510.25
2023-05-14T02:15:11.752Z,99481.13
2023-05-14T02:17:40.472Z,99492.81
2023-05-14T02:20:10.987Z,99485.88
2023-05-14T02:22:42.959Z,99504.78
2023-05-14T02:25:15.060Z,99512.50
2023-05-14T02:27:43.833Z,99517.69
2023-05-14T02:30:13.568Z,99449.69
2023-05-14T02:32:42.484Z,99524.06
2023-05-14T02:35:11.509Z,99528.41
2023-05-14T02:37:40.583Z,99538.69
2023-05-14T02:40:09.844Z,99525.59
2023-05-14T02:42:38.556Z,99546.97
2023-05-14T02:45:08.089Z,99517.13
2023-05-14T02:47:38.254Z,99519.75
2023-05-14T02:50:07.718Z,99535.34
2023-05-14T02:52:36.750Z,99533.53
2023-05-14T02:55:06.311Z,99549.53
2023-05-14T02:57:35.074Z,99536.63
2023-05-14T03:00:03.951Z,99529.00
2023-05-14T03:02:33.332Z,99534.84
2023-05-14T03:05:02.929Z,99546.81
2023-05-14T03:07:31.676Z,99564.84
2023-05-14T03:10:01.039Z,99552.16
2023-05-14T03:12:32.502Z,99546.19
2023-05-14T03:15:01.220Z,99567.38
2023-05-14T03:17:30.183Z,99584.59
2023-05-14T03:19:58.917Z,99570.75
2023-05-14T03:22:28.788Z,99563.94
2023-05-14T03:24:57.575Z,99569.75
2023-05-14T03:27:26.432Z,99565.50
2023-05-14T03:29:55.074Z,99566.09
2023-05-14T03:32:23.952Z,99576.03
2023-05-14T03:34:52.660Z,99574.03
2023-05-14T03:37:21.618Z,99580.03
2023-05-14T03:39:50.513Z,99567.53
2023-05-14T03:42:19.161Z,99585.31
2023-05-14T03:44:47.870Z,99574.81
2023-05-14T03:47:17.194Z,99581.41
2023-05-14T03:49:46.112Z,99590.78
2023-05-14T03:52:16.430Z,99590.34
2023-05-14T03:54:46.252Z,99590.75
2023-05-14T03:57:16.650Z,99584.56
2023-05-14T03:59:45.472Z,99603.97
2023-05-14T04:02:14.794Z,99576.28
2023-05-14T04:04:43.714Z,99592.41
2023-05-14T04:07:12.510Z,99600.50
2023-05-14T04:09:41.320Z,99585.03
2023-05-14T04:12:10.397Z,99611.19
2023-05-14T04:14:38.951Z,99596.91
2023-05-14T04:17:07.758Z,99588.09
2023-05-14T04:19:36.683Z,99612.44
2023-05-14T04:22:06.156Z,99594.63
2023-05-14T04:24:35.188Z,99589.72
2023-05-14T04:27:04.065Z,99591.75
2023-05-14T04:29:32.949Z,99602.94
2023-05-14T04:32:01.783Z,99530.16
2023-05-14T04:34:30.511Z,99598.63
2023-05-14T04:36:59.408Z,99607.19
2023-05-14T04:39:28.393Z,99596.84
2023-05-14T04:41:57.046Z,99592.56
2023-05-14T04:44:27.115Z,99603.72
2023-05-14T04:46:56.066Z,99587.84
2023-05-14T04:49:27.526Z,99611.31
2023-05-14T04:51:58.620Z,99541.72
2023-05-14T04:54:27.481Z,99600.59
2023-05-14T04:56:56.745Z,99610.09
2023-05-14T04:59:25.565Z,99620.31
2023-05-14T05:01:54.285Z,99593.88
2023-05-14T05:04:24.824Z,99619.59
2023-05-14T05:06:53.636Z,99612.25
2023-05-14T05:09:22.369Z,99595.00
2023-05-14T05:11:51.408Z,99601.59
2023-05-14T05:14:20.632Z,99618.25
2023-05-14T05:16:49.272Z,99615.06
2023-05-14T05:19:18.851Z,99608.38
2023-05-14T05:21:49.869Z,99614.59
2023-05-14T05:24:18.639Z,99632.94
2023-05-14T05:26:47.891Z,99625.59
2023-05-14T05:29:16.930Z,99638.97
2023-05-14T05:31:45.608Z,99648.50
2023-05-14T05:34:14.262Z,99630.81
2023-05-14T05:36:42.991Z,99648.03
2023-05-14T05:39:12.136Z,99631.13
2023-05-14T05:41:41.373Z,99626.50
2023-05-14T05:44:10.167Z,99649.94
2023-05-14T05:46:39.072Z,99632.09
2023-05-14T05:49:08.201Z,99615.09
2023-05-14T05:51:36.985Z,99573.44
2023-05-14T05:54:05.931Z,99572.50
2023-05-14T05:56:34.807Z,99623.19
2023-05-14T05:59:04.687Z,99634.44
2023-05-14T06:01:33.690Z,99636.97
2023-05-14T06:04:02.754Z,99643.53
2023-05-14T06:06:33.477Z,99655.06
2023-05-14T06:09:02.979Z,99652.03
2023-05-14T06:11:31.655Z,99643.63
2023-05-14T06:14:00.504Z,99631.88
2023-05-14T06:16:29.578Z,99643.13
2023-05-14T06:18:58.434Z,99564.72
2023-05-14T06:21:29.189Z,99647.09
2023-05-14T06:23:58.118Z,99650.22
2023-05-14T06:26:27.056Z,99633.13
2023-05-14T06:28:56.083Z,99643.78
2023-05-14T06:31:24.742Z,99641.97
2023-05-14T06:33:53.632Z,99647.38
2023-05-14T06:36:22.561Z,99656.06
2023-05-14T06:38:51.295Z,99588.53
2023-05-14T06:41:20.168Z,99630.66
2023-05-14T06:43:48.878Z,99656.72
2023-05-14T06:46:19.947Z,99631.03
2023-05-14T06:48:51.282Z,99643.47
2023-05-14T06:51:20.247Z,99635.38
2023-05-14T06:53:49.572Z,99646.88
2023-05-14T06:56:18.475Z,99644.03
2023-05-14T06:58:47.289Z,99636.69
2023-05-14T07:01:16.132Z,99582.97
2023-05-14T07:03:45.009Z,99640.06
2023-05-14T07:06:14.927Z,99652.03
2023-05-14T07:08:48.701Z,99653.25
2023-05-14T07:11:17.433Z,99660.56
2023-05-14T07:13:46.355Z,99650.00
2023-05-14T07:16:15.109Z,99639.69
2023-05-14T07:18:44.567Z,99646.84
2023-05-14T07:21:13.572Z,99646.13
2023-05-14T07:23:42.448Z,99586.63
2023-05-14T07:26:11.171Z,99589.50
2023-05-14T07:28:40.032Z,99642.94
2023-05-14T07:31:09.615Z,99644.31
2023-05-14T07:33:39.369Z,99632.22
2023-05-14T07:36:08.888Z,99583.63
2023-05-14T07:38:37.755Z,99644.50
2023-05-14T07:41:06.668Z,99639.06
2023-05-14T07:43:35.475Z,99647.31
2023-05-14T07:46:04.350Z,99650.34
2023-05-14T07:48:32.992Z,99644.59
2023-05-14T07:51:02.038Z,99635.22
2023-05-14T07:53:30.813Z,99663.56
2023-05-14T07:56:00.877Z,99590.97
2023-05-14T07:58:29.570Z,99632.47
2023-05-14T08:01:01.326Z,99625.22
2023-05-14T08:03:30.127Z,99644.66
2023-05-14T08:05:58.967Z,99646.66
2023-05-14T08:08:28.592Z,99656.22
2023-05-14T08:10:57.667Z,99652.03
2023-05-14T08:13:26.646Z,99665.81
2023-05-14T08:15:55.351Z,99653.56
2023-05-14T08:18:23.916Z,99676.38
2023-05-14T08:20:52.969Z,99643.84
2023-05-14T08:23:21.653Z,99665.28
2023-05-14T08:25:50.452Z,99666.81
2023-05-14T08:28:19.091Z,99620.19
2023-05-14T08:30:48.366Z,99690.41
2023-05-14T08:33:17.125Z,99667.09
2023-05-14T08:35:45.978Z,99677.00
2023-05-14T08:38:14.594Z,99640.31
2023-05-14T08:40:57.458Z,99681.81
2023-05-14T08:43:35.338Z,99700.25
2023-05-14T08:46:07.056Z,99704.34
2023-05-14T08:48:36.751Z,99646.50
2023-05-14T08:51:08.885Z,99704.63
2023-05-14T08:53:39.030Z,99692.00
2023-05-14T08:56:09.890Z,99686.81
2023-05-14T08:58:39.381Z,99690.69
2023-05-14T09:01:08.273Z,99694.22
2023-05-14T09:03:38.096Z,99683.56
2023-05-14T09:06:07.657Z,99689.09
2023-05-14T09:08:37.293Z,99702.63
2023-05-14T09:11:06.274Z,99692.94
2023-05-14T09:13:39.588Z,99704.34
2023-05-14T09:16:08.739Z,99684.59
2023-05-14T09:18:38.185Z,99693.84
2023-05-14T09:21:06.959Z,99692.31
2023-05-14T09:23:36.007Z,99690.19
2023-05-14T09:26:08.028Z,99706.63
2023-05-14T09:28:36.868Z,99682.03
2023-05-14T09:31:06.420Z,99708.38
2023-05-14T09:33:35.208Z,99690.16
2023-05-14T09:36:06.078Z,99699.84
2023-05-14T09:38:36.196Z,99717.34
2023-05-14T09:41:05.013Z,99687.78
2023-05-14T09:43:34.491Z,99690.75
2023-05-14T09:46:03.376Z,99688.00
2023-05-14T09:48:32.457Z,99698.66
2023-05-14T09:51:02.687Z,99699.38
2023-05-14T09:53:36.448Z,99646.22
2023-05-14T09:56:05.792Z,99680.22
2023-05-14T09:58:35.253Z,99683.59
2023-05-14T10:01:04.191Z,99685.81
2023-05-14T10:03:33.610Z,99690.38
2023-05-14T10:06:06.389Z,99704.78
2023-05-14T10:08:37.015Z,99650.88
2023-05-14T10:11:13.201Z,99694.41
2023-05-14T10:13:47.069Z,99707.56
2023-05-14T10:16:47.429Z,99689.41
2023-05-14T10:19:18.338Z,99689.50
2023-05-14T10:21:54.057Z,99703.91
2023-05-14T10:24:24.152Z,99680.69
2023-05-14T10:26:53.315Z,99699.13
2023-05-14T10:29:34.577Z,99692.19
2023-05-14T10:32:10.465Z,99698.03
2023-05-14T10:34:47.026Z,99682.84
2023-05-14T10:37:18.568Z,99696.16
2023-05-14T10:39:54.839Z,99702.63
2023-05-14T10:42:28.326Z,99711.97
2023-05-14T10:45:03.433Z,99715.66
2023-05-14T10:47:37.807Z,99687.09
2023-05-14T10:50:08.698Z,99699.53
2023-05-14T10:52:38.325Z,99704.91
2023-05-14T10:55:11.601Z,99706.66
2023-05-14T10:57:43.128Z,99700.44
2023-05-14T11:00:13.932Z,99707.06
2023-05-14T11:02:45.290Z,99711.19
2023-05-14T11:05:18.481Z,99689.19
2023-05-14T11:07:50.148Z,99698.22
2023-05-14T11:10:20.825Z,99712.03
2023-05-14T11:12:54.621Z,99713.72
2023-05-14T11:15:25.734Z,99720.84
2023-05-14T11:17:55.447Z,99664.97
2023-05-14T11:20:24.658Z,99726.81
2023-05-14T11:22:53.968Z,99720.94
2023-05-14T11:25:23.432Z,99720.53
2023-05-14T11:27:52.601Z,99722.66
2023-05-14T11:30:22.875Z,99738.97
2023-05-14T11:32:52.042Z,99736.69
2023-05-14T11:35:21.121Z,99682.53
2023-05-14T11:37:56.299Z,99719.50
2023-05-14T11:40:25.252Z,99734.72
2023-05-14T11:42:57.335Z,99728.56
2023-05-14T11:45:27.714Z,99731.03
2023-05-14T11:47:57.005Z,99736.69
2023-05-14T11:50:26.269Z,99763.41
2023-05-14T11:52:58.473Z,99727.94
2023-05-14T11:55:27.422Z,99719.41
2023-05-14T11:57:56.070Z,99757.16
2023-05-14T12:00:25.898Z,99740.06
2023-05-14T12:02:55.928Z,99752.28
2023-05-14T12:05:24.779Z,99753.34
2023-05-14T12:07:53.607Z,99738.81
2023-05-14T12:10:22.562Z,99733.88
2023-05-14T12:12:51.649Z,99752.16
2023-05-14T12:15:22.926Z,99741.47
2023-05-14T12:17:54.972Z,99751.91
2023-05-14T12:20:24.945Z,99769.56
2023-05-14T12:22:54.055Z,99756.00
2023-05-14T12:25:22.914Z,99775.41
2023-05-14T12:27:51.753Z,99758.88
2023-05-14T12:30:21.684Z,99781.41
2023-05-14T12:33:03.557Z,99716.28
2023-05-14T12:35:32.504Z,99766.75
2023-05-14T12:38:01.443Z,99721.41
2023-05-14T12:40:30.354Z,99773.22
2023-05-14T12:42:59.258Z,99782.28
2023-05-14T12:45:27.960Z,99804.03
2023-05-14T12:47:56.842Z,99795.28
2023-05-14T12:50:25.918Z,99741.53
2023-05-14T12:52:55.057Z,99796.34
2023-05-14T12:55:23.796Z,99788.00
2023-05-14T12:57:52.739Z,99740.94
2023-05-14T13:00:21.714Z,99793.69
2023-05-14T13:02:50.638Z,99800.72
2023-05-14T13:05:19.559Z,99737.31
2023-05-14T13:07:48.523Z,99783.59
2023-05-14T13:10:19.285Z,99782.28
2023-05-14T13:12:48.014Z,99780.81
2023-05-14T13:15:16.878Z,99792.22
2023-05-14T13:17:48.541Z,99803.84
2023-05-14T13:20:19.161Z,99798.03
2023-05-14T13:22:47.973Z,99823.97
2023-05-14T13:25:17.011Z,99749.88
2023-05-14T13:27:45.902Z,99820.00
2023-05-14T13:30:14.679Z,99808.59
2023-05-14T13:32:43.645Z,99824.22
2023-05-14T13:35:13.245Z,99809.00
2023-05-14T13:37:41.942Z,99804.38
2023-05-14T13:40:11.673Z,99802.56
2023-05-14T13:42:43.363Z,99817.84
2023-05-14T13:45:13.971Z,99817.25
2023-05-14T13:47:42.782Z,99819.19
2023-05-14T13:50:11.951Z,99805.63
2023-05-14T13:52:40.756Z,99777.28
2023-05-14T13:55:10.045Z,99841.38
2023-05-14T13:57:40.374Z,99824.03
2023-05-14T14:00:10.215Z,99842.59
2023-05-14T14:02:39.109Z,99829.38
2023-05-14T14:05:08.314Z,99824.31
2023-05-14T14:07:37.193Z,99851.31
2023-05-14T14:10:06.288Z,99831.31
2023-05-14T14:12:35.232Z,99821.81
2023-05-14T14:15:04.815Z,99856.50
2023-05-14T14:17:35.504Z,99863.28
2023-05-14T14:20:06.725Z,99861.88
2023-05-14T14:22:35.666Z,99858.69
2023-05-14T14:25:04.960Z,99798.19
2023-05-14T14:27:35.604Z,99866.06
2023-05-14T14:30:04.643Z,99848.91
2023-05-14T14:32:33.601Z,99855.16
2023-05-14T14:35:02.684Z,99775.28
2023-05-14T14:37:31.349Z,99875.75
2023-05-14T14:40:00.204Z,99873.25
2023-05-14T14:42:28.977Z,99876.91
2023-05-14T14:44:57.932Z,99871.28
2023-05-14T14:47:26.753Z,99881.59
2023-05-14T14:49:55.551Z,99893.09
2023-05-14T14:52:25.491Z,99838.25
2023-05-14T14:54:56.438Z,99836.34
2023-05-14T14:57:25.386Z,99899.22
2023-05-14T14:59:54.326Z,99904.09
2023-05-14T15:02:23.683Z,99900.44
2023-05-14T15:04:52.638Z,99892.41
2023-05-14T15:07:22.994Z,99899.28
2023-05-14T15:09:51.632Z,99906.41
2023-05-14T15:12:20.558Z,99923.00
2023-05-14T15:14:49.530Z,99903.78
2023-05-14T15:17:18.394Z,99922.88
2023-05-14T15:19:47.437Z,99908.56
2023-05-14T15:22:16.282Z,99923.31
2023-05-14T15:24:45.199Z,99865.63
2023-05-14T15:27:13.963Z,99921.91
2023-05-14T15:29:42.810Z,99924.25
2023-05-14T15:32:11.577Z,99938.84
2023-05-14T15:34:40.440Z,99928.94
2023-05-14T15:37:09.284Z,99885.44
2023-05-14T15:39:38.172Z,99923.34
2023-05-14T15:42:07.224Z,99933.84
2023-05-14T15:44:38.954Z,99942.34
2023-05-14T15:47:08.048Z,99960.94
2023-05-14T15:49:36.791Z,99947.91
2023-05-14T15:52:05.733Z,99933.97
2023-05-14T15:54:34.694Z,99966.03
2023-05-14T15:57:03.264Z,99892.16
2023-05-14T15:59:32.072Z,99976.50
2023-05-14T16:02:00.901Z,99977.94
2023-05-14T16:04:29.874Z,99980.19
2023-05-14T16:07:10.251Z,99938.69
2023-05-14T16:09:40.004Z,99977.56
2023-05-14T16:12:09.998Z,99979.91
2023-05-14T16:14:40.552Z,99982.03
2023-05-14T16:17:10.662Z,99980.63
2023-05-14T16:19:40.621Z,99957.16
2023-05-14T16:22:11.801Z,99987.94
2023-05-14T16:24:40.700Z,99960.66
2023-05-14T16:27:09.329Z,99993.22
2023-05-14T16:29:38.058Z,99957.31
2023-05-14T16:32:07.137Z,99987.88
2023-05-14T16:34:36.010Z,99978.94
2023-05-14T16:37:04.836Z,99969.63
2023-05-14T16:39:35.826Z,99987.03
2023-05-14T16:42:04.698Z,99907.94
2023-05-14T16:44:33.445Z,100003.44
2023-05-14T16:47:01.955Z,99986.31
2023-05-14T16:49:30.643Z,100002.03
2023-05-14T16:51:59.456Z,99985.06
2023-05-14T16:54:28.362Z,99980.28
2023-05-14T16:56:57.026Z,99990.53
2023-05-14T16:59:26.142Z,99922.25
2023-05-14T17:01:55.033Z,99974.34
2023-05-14T17:04:25.851Z,99969.38
2023-05-14T17:06:54.701Z,99991.84
2023-05-14T17:09:23.498Z,100007.38
2023-05-14T17:11:52.288Z,99980.84
2023-05-14T17:14:23.757Z,100007.31
2023-05-14T17:16:52.529Z,99987.69
2023-05-14T17:19:21.233Z,100015.16
2023-05-14T17:21:50.028Z,100021.22
2023-05-14T17:24:18.749Z,99935.41
2023-05-14T17:26:47.558Z,100006.34
2023-05-14T17:29:16.524Z,100002.00
2023-05-14T17:31:45.224Z,100007.97
2023-05-14T17:34:14.533Z,100021.91
2023-05-14T17:36:43.074Z,100014.22
2023-05-14T17:39:12.322Z,100007.50
2023-05-14T17:41:42.872Z,100004.19
2023-05-14T17:44:13.147Z,99940.91
2023-05-14T17:46:43.192Z,100026.59
2023-05-14T17:49:12.654Z,100031.09
2023-05-14T17:51:41.511Z,99992.63
2023-05-14T17:54:12.318Z,100042.63
2023-05-14T17:56:41.048Z,100028.09
2023-05-14T17:59:12.649Z,100019.03
2023-05-14T18:01:42.091Z,100014.06
2023-05-14T18:04:11.349Z,100017.00
2023-05-14T18:06:40.232Z,100038.38
2023-05-14T18:09:09.082Z,99963.22
2023-05-14T18:11:37.830Z,100053.31
2023-05-14T18:14:06.614Z,99956.25
2023-05-14T18:16:35.803Z,100009.28
2023-05-14T18:19:04.684Z,100026.34
2023-05-14T18:21:33.513Z,100039.25
2023-05-14T18:24:02.179Z,100045.47
2023-05-14T18:26:33.590Z,100030.19
2023-05-14T18:29:03.197Z,100029.59
2023-05-14T18:31:32.445Z,99976.03
2023-05-14T18:34:01.477Z,100050.56
2023-05-14T18:36:30.262Z,100031.16
2023-05-14T18:38:59.112Z,100026.41
2023-05-14T18:41:27.898Z,100045.28
2023-05-14T18:43:58.855Z,100028.13
2023-05-14T18:46:27.883Z,100036.91
2023-05-14T18:49:00.055Z,100033.47
2023-05-14T18:51:31.343Z,100049.88
2023-05-14T18:54:00.162Z,100033.47
2023-05-14T18:56:28.804Z,100042.06
2023-05-14T18:58:57.635Z,100045.66
2023-05-14T19:01:26.543Z,100042.91
2023-05-14T19:03:55.856Z,100011.22
2023-05-14T19:06:25.116Z,100041.31
2023-05-14T19:08:55.415Z,100037.63
2023-05-14T19:11:24.154Z,100061.69
2023-05-14T19:13:53.303Z,100051.06
2023-05-14T19:16:22.186Z,100061.34
2023-05-14T19:18:51.425Z,100044.03
2023-05-14T19:21:20.577Z,100068.81
2023-05-14T19:23:49.358Z,100055.09
2023-05-14T19:26:18.242Z,100067.75
2023-05-14T19:28:47.015Z,100054.91
2023-05-14T19:31:16.471Z,100049.94
2023-05-14T19:33:45.329Z,100053.75
2023-05-14T19:36:14.351Z,100066.81
2023-05-14T19:38:43.172Z,100061.06
2023-05-14T19:41:11.828Z,100074.31
2023-05-14T19:43:40.700Z,100083.81
2023-05-14T19:46:09.402Z,100055.59
2023-05-14T19:48:39.571Z,100065.22
2023-05-14T19:51:08.465Z,100061.03
2023-05-14T19:53:37.252Z,100082.63
2023-05-14T19:56:06.107Z,100058.56
2023-05-14T19:58:35.109Z,100075.66
2023-05-14T20:01:05.159Z,100082.41
2023-05-14T20:03:34.154Z,99994.16
2023-05-14T20:06:02.911Z,100042.06
2023-05-14T20:08:32.216Z,100065.03
2023-05-14T20:11:01.177Z,100062.63
2023-05-14T20:13:32.619Z,100026.72
2023-05-14T20:16:02.110Z,100079.06
2023-05-14T20:18:31.057Z,100062.63
2023-05-14T20:20:59.892Z,100080.69
2023-05-14T20:23:28.899Z,100051.56
2023-05-14T20:26:02.659Z,100094.63
2023-05-14T20:28:31.704Z,100090.75
2023-05-14T20:31:01.086Z,100073.59
2023-05-14T20:33:30.194Z,100071.44
2023-05-14T20:35:59.261Z,100093.09
2023-05-14T20:38:30.278Z,100081.13
2023-05-14T20:40:58.994Z,100083.88
2023-05-14T20:43:28.639Z,100018.84
2023-05-14T20:45:59.767Z,100101.13
2023-05-14T20:48:28.800Z,100110.03
2023-05-14T20:50:57.726Z,100105.00
2023-05-14T20:53:26.591Z,100092.03
2023-05-14T20:55:55.411Z,100105.16
2023-05-14T20:58:24.214Z,100094.34
2023-05-14T21:00:55.201Z,100028.50
2023-05-14T21:03:24.203Z,100104.03
2023-05-14T21:05:55.412Z,100094.69
2023-05-14T21:08:24.269Z,100103.19
2023-05-14T21:10:52.955Z,100113.50
2023-05-14T21:13:21.904Z,100098.88
2023-05-14T21:15:50.847Z,100089.47
2023-05-14T21:18:19.507Z,100121.31
2023-05-14T21:20:48.298Z,100090.28
2023-05-14T21:23:16.962Z,100072.25
2023-05-14T21:25:45.875Z,100081.66
2023-05-14T21:28:14.551Z,100100.59
2023-05-14T21:30:43.270Z,100004.03
2023-05-14T21:33:12.776Z,100096.25
2023-05-14T21:35:42.056Z,100117.75
2023-05-14T21:38:10.940Z,100102.38
2023-05-14T21:40:39.768Z,100095.50
2023-05-14T21:43:08.573Z,100108.38
2023-05-14T21:45:37.249Z,100117.56
2023-05-14T21:48:09.028Z,100123.22
2023-05-14T21:50:38.007Z,100131.78
2023-05-14T21:53:06.886Z,100124.94
2023-05-14T21:55:36.209Z,100134.38
2023-05-14T21:58:05.363Z,100095.41
2023-05-14T22:00:34.432Z,100109.66
2023-05-14T22:03:03.326Z,100124.66
2023-05-14T22:05:32.114Z,100127.16
2023-05-14T22:08:00.910Z,100117.47
2023-05-14T22:10:29.737Z,100137.22
2023-05-14T22:12:58.533Z,100120.72
2023-05-14T22:15:27.304Z,100119.41
2023-05-14T22:17:56.611Z,100116.44
2023-05-14T22:20:25.396Z,100138.75
2023-05-14T22:22:54.247Z,100113.50
2023-05-14T22:25:23.419Z,100129.53
2023-05-14T22:27:52.458Z,100125.88
2023-05-14T22:30:21.788Z,100109.16
2023-05-14T22:32:50.610Z,100088.91
2023-05-14T22:35:19.426Z,100098.81
2023-05-14T22:37:48.605Z,100100.31
2023-05-14T22:40:17.254Z,100099.28
2023-05-14T22:42:46.198Z,100114.31
2023-05-14T22:45:15.160Z,100096.22
2023-05-14T22:47:44.216Z,100093.53
2023-05-14T22:50:13.180Z,100112.44
2023-05-14T22:52:42.329Z,100133.13
2023-05-14T22:55:11.353Z,100125.72
2023-05-14T22:57:40.400Z,100120.59
2023-05-14T23:00:09.850Z,100127.47
2023-05-14T23:02:38.743Z,100117.81
2023-05-14T23:05:09.495Z,100127.06
2023-05-14T23:07:38.337Z,100109.56
2023-05-14T23:10:07.635Z,100141.88
2023-05-14T23:12:36.250Z,100118.38
2023-05-14T23:15:05.441Z,100136.31
2023-05-14T23:17:34.270Z,100130.88
2023-05-14T23:20:03.041Z,100132.22
2023-05-14T23:22:31.843Z,100133.06
2023-05-14T23:25:03.272Z,100123.41
2023-05-14T23:27:32.075Z,100124.22
2023-05-14T23:30:00.838Z,100118.25
2023-05-14T23:32:29.848Z,100121.88
2023-05-14T23:34:58.798Z,100154.34
2023-05-14T23:37:27.623Z,100157.84
2023-05-14T23:39:56.349Z,100147.47
2023-05-14T23:42:25.729Z,100147.34
2023-05-14T23:44:54.431Z,100152.22
2023-05-14T23:47:23.389Z,100137.59
2023-05-14T23:49:52.224Z,100140.03
2023-05-14T23:52:20.972Z,100164.16
2023-05-14T23:54:49.904Z,100147.81
2023-05-14T23:57:18.745Z,100168.28
2023-05-14T23:59:50.133Z,100181.34
